Time,TemperatureF,DewpointF,PressureIn,WindDirection,WindDirectionDegrees,WindSpeedMPH,WindSpeedGustMPH,Humidity,HourlyPrecipIn,Conditions,Clouds,dailyrainin,SoftwareType,DateUTC
2013-02-19 00:02:00,22.0,5.0,30.42,West,267,0.0,3.0,48,0.00,,,0.00,,2013-02-19 05:02:00,
2013-02-19 00:13:00,22.0,5.0,30.42,West,267,0.0,3.0,48,0.00,,,0.00,,2013-02-19 05:13:00,
2013-02-19 00:22:00,22.0,5.0,30.42,WSW,246,1.0,2.0,48,0.00,,,0.00,,2013-02-19 05:22:00,
2013-02-19 00:32:00,22.0,5.0,30.42,West,263,1.0,3.0,48,0.00,,,0.00,,2013-02-19 05:32:00,
2013-02-19 00:43:00,22.0,5.0,30.42,West,263,1.0,3.0,48,0.00,,,0.00,,2013-02-19 05:43:00,
2013-02-19 00:52:00,22.0,5.0,30.42,West,260,1.0,3.0,47,0.00,,,0.00,,2013-02-19 05:52:00,
2013-02-19 01:03:00,22.0,5.0,30.42,West,281,1.0,3.0,48,0.00,,,0.00,,2013-02-19 06:03:00,
2013-02-19 01:12:00,22.0,5.0,30.42,West,281,1.0,3.0,48,0.00,,,0.00,,2013-02-19 06:12:00,
2013-02-19 01:22:00,22.0,5.0,30.42,WSW,257,1.0,3.0,48,0.00,,,0.00,,2013-02-19 06:22:00,
2013-02-19 01:32:00,22.0,5.0,30.42,WSW,256,1.0,2.0,48,0.00,,,0.00,,2013-02-19 06:32:00,
2013-02-19 01:42:00,22.0,5.0,30.42,WSW,256,1.0,2.0,48,0.00,,,0.00,,2013-02-19 06:42:00,
2013-02-19 01:53:00,22.0,5.0,30.43,West,259,0.0,2.0,48,0.00,,,0.00,,2013-02-19 06:53:00,
2013-02-19 02:01:00,22.0,5.0,30.43,West,278,0.0,1.0,48,0.00,,,0.00,,2013-02-19 07:01:00,
2013-02-19 02:11:00,22.0,5.0,30.43,West,278,0.0,1.0,48,0.00,,,0.00,,2013-02-19 07:11:00,
2013-02-19 02:22:00,22.0,5.0,30.44,West,267,0.0,1.0,48,0.00,,,0.00,,2013-02-19 07:22:00,
2013-02-19 02:32:00,22.0,6.0,30.43,West,267,0.0,2.0,50,0.00,,,0.00,,2013-02-19 07:32:00,
2013-02-19 02:42:00,22.0,6.0,30.43,West,267,0.0,2.0,50,0.00,,,0.00,,2013-02-19 07:42:00,
2013-02-19 02:52:00,22.0,5.0,30.44,WSW,256,1.0,3.0,48,0.00,,,0.00,,2013-02-19 07:52:00,
2013-02-19 03:02:00,22.0,7.0,30.44,WSW,253,1.0,2.0,51,0.00,,,0.00,,2013-02-19 08:02:00,
2013-02-19 03:11:00,22.0,7.0,30.44,WSW,253,1.0,2.0,51,0.00,,,0.00,,2013-02-19 08:11:00,
2013-02-19 03:22:00,23.0,6.0,30.43,West,270,1.0,3.0,47,0.00,,,0.00,,2013-02-19 08:22:00,
2013-02-19 03:32:00,23.0,7.0,30.44,West,269,0.0,2.0,50,0.00,,,0.00,,2013-02-19 08:32:00,
2013-02-19 03:42:00,23.0,7.0,30.44,West,269,0.0,2.0,50,0.00,,,0.00,,2013-02-19 08:42:00,
2013-02-19 03:52:00,22.0,7.0,30.44,West,273,0.0,1.0,51,0.00,,,0.00,,2013-02-19 08:52:00,
2013-02-19 04:02:00,22.0,7.0,30.44,West,273,0.0,1.0,51,0.00,,,0.00,,2013-02-19 09:02:00,
2013-02-19 04:11:00,22.0,7.0,30.44,West,273,0.0,1.0,51,0.00,,,0.00,,2013-02-19 09:11:00,
2013-02-19 04:22:00,21.0,7.0,30.44,West,273,0.0,0.0,53,0.00,,,0.00,,2013-02-19 09:22:00,
2013-02-19 04:32:00,21.0,7.0,30.43,West,273,0.0,0.0,54,0.00,,,0.00,,2013-02-19 09:32:00,
2013-02-19 04:42:00,21.0,7.0,30.43,West,273,0.0,0.0,54,0.00,,,0.00,,2013-02-19 09:42:00,
2013-02-19 04:53:00,21.0,7.0,30.42,West,273,0.0,1.0,55,0.00,,,0.00,,2013-02-19 09:53:00,
2013-02-19 05:02:00,21.0,8.0,30.42,West,273,0.0,0.0,57,0.00,,,0.00,,2013-02-19 10:02:00,
2013-02-19 05:11:00,21.0,8.0,30.42,West,273,0.0,0.0,57,0.00,,,0.00,,2013-02-19 10:11:00,
2013-02-19 05:22:00,20.0,7.0,30.41,West,274,0.0,1.0,56,0.00,,,0.00,,2013-02-19 10:22:00,
2013-02-19 05:32:00,20.0,7.0,30.41,West,274,0.0,1.0,56,0.00,,,0.00,,2013-02-19 10:32:00,
2013-02-19 05:42:00,20.0,7.0,30.41,West,274,0.0,1.0,56,0.00,,,0.00,,2013-02-19 10:42:00,
2013-02-19 05:52:00,20.0,10.0,30.40,West,272,0.0,0.0,64,0.00,,,0.00,,2013-02-19 10:52:00,
2013-02-19 06:01:00,20.0,10.0,30.40,West,272,0.0,0.0,64,0.00,,,0.00,,2013-02-19 11:01:00,
2013-02-19 06:11:00,20.0,10.0,30.40,West,272,0.0,0.0,64,0.00,,,0.00,,2013-02-19 11:11:00,
2013-02-19 06:22:00,21.0,11.0,30.40,West,273,0.0,0.0,65,0.00,,,0.00,,2013-02-19 11:22:00,
2013-02-19 06:32:00,22.0,9.0,30.40,West,271,0.0,1.0,57,0.00,,,0.00,,2013-02-19 11:32:00,
2013-02-19 06:42:00,22.0,9.0,30.40,West,271,0.0,1.0,57,0.00,,,0.00,,2013-02-19 11:42:00,
2013-02-19 06:52:00,23.0,8.0,30.41,West,271,0.0,1.0,53,0.00,,,0.00,,2013-02-19 11:52:00,
2013-02-19 07:02:00,23.0,8.0,30.41,West,271,0.0,1.0,53,0.00,,,0.00,,2013-02-19 12:02:00,
2013-02-19 07:12:00,23.0,8.0,30.41,West,271,0.0,1.0,53,0.00,,,0.00,,2013-02-19 12:12:00,
2013-02-19 07:22:00,23.0,9.0,30.41,West,269,0.0,1.0,55,0.00,,,0.00,,2013-02-19 12:22:00,
2013-02-19 07:32:00,23.0,8.0,30.41,West,269,0.0,1.0,53,0.00,,,0.00,,2013-02-19 12:32:00,
2013-02-19 07:42:00,23.0,8.0,30.41,West,269,0.0,1.0,53,0.00,,,0.00,,2013-02-19 12:42:00,
2013-02-19 07:52:00,24.0,10.0,30.40,West,269,0.0,0.0,54,0.00,,,0.00,,2013-02-19 12:52:00,
2013-02-19 08:02:00,25.0,10.0,30.40,West,269,0.0,0.0,53,0.00,,,0.00,,2013-02-19 13:02:00,
2013-02-19 08:11:00,25.0,10.0,30.40,West,269,0.0,0.0,53,0.00,,,0.00,,2013-02-19 13:11:00,
2013-02-19 08:22:00,26.0,9.0,30.39,West,269,0.0,0.0,49,0.00,,,0.00,,2013-02-19 13:22:00,
2013-02-19 08:32:00,27.0,9.0,30.39,West,269,0.0,0.0,47,0.00,,,0.00,,2013-02-19 13:32:00,
2013-02-19 08:42:00,27.0,9.0,30.39,West,269,0.0,0.0,47,0.00,,,0.00,,2013-02-19 13:42:00,
2013-02-19 08:52:00,27.0,9.0,30.39,West,269,0.0,1.0,47,0.00,,,0.00,,2013-02-19 13:52:00,
2013-02-19 09:01:00,27.0,9.0,30.38,SW,215,0.0,1.0,46,0.00,,,0.00,,2013-02-19 14:01:00,
2013-02-19 09:12:00,27.0,9.0,30.38,SW,215,0.0,1.0,46,0.00,,,0.00,,2013-02-19 14:12:00,
2013-02-19 09:22:00,28.0,10.0,30.38,West,269,0.0,1.0,47,0.00,,,0.00,,2013-02-19 14:22:00,
2013-02-19 09:33:00,29.0,11.0,30.38,West,263,0.0,3.0,47,0.00,,,0.00,,2013-02-19 14:33:00,
2013-02-19 09:42:00,29.0,11.0,30.38,West,263,0.0,3.0,47,0.00,,,0.00,,2013-02-19 14:42:00,
2013-02-19 09:52:00,31.0,13.0,30.37,WSW,257,1.0,3.0,46,0.00,,,0.00,,2013-02-19 14:52:00,
2013-02-19 10:02:00,32.0,14.0,30.37,SW,224,1.0,3.0,47,0.00,,,0.00,,2013-02-19 15:02:00,
2013-02-19 10:11:00,32.0,14.0,30.37,SW,224,1.0,3.0,47,0.00,,,0.00,,2013-02-19 15:11:00,
2013-02-19 10:22:00,33.0,14.0,30.37,West,270,2.0,5.0,45,0.00,,,0.00,,2013-02-19 15:22:00,
2013-02-19 10:32:00,35.0,16.0,30.36,SW,215,1.0,3.0,45,0.00,,,0.00,,2013-02-19 15:32:00,
2013-02-19 10:42:00,35.0,16.0,30.36,SW,215,1.0,3.0,45,0.00,,,0.00,,2013-02-19 15:42:00,
2013-02-19 10:52:00,37.0,17.0,30.35,North,8,1.0,3.0,44,0.00,,,0.00,,2013-02-19 15:52:00,
2013-02-19 11:02:00,37.0,17.0,30.35,North,8,1.0,3.0,44,0.00,,,0.00,,2013-02-19 16:02:00,
2013-02-19 11:11:00,37.0,17.0,30.35,North,8,1.0,3.0,44,0.00,,,0.00,,2013-02-19 16:11:00,
2013-02-19 11:22:00,39.0,20.0,30.33,NNW,330,2.0,6.0,47,0.00,,,0.00,,2013-02-19 16:22:00,
2013-02-19 11:32:00,39.0,21.0,30.33,WSW,250,1.0,5.0,48,0.00,,,0.00,,2013-02-19 16:32:00,
2013-02-19 11:42:00,39.0,21.0,30.33,WSW,250,1.0,5.0,48,0.00,,,0.00,,2013-02-19 16:42:00,
2013-02-19 11:52:00,41.0,24.0,30.33,West,277,2.0,5.0,51,0.00,,,0.00,,2013-02-19 16:52:00,
2013-02-19 12:01:00,41.0,24.0,30.32,NNW,330,1.0,8.0,51,0.00,,,0.00,,2013-02-19 17:01:00,
2013-02-19 12:11:00,41.0,24.0,30.32,NNW,330,1.0,8.0,51,0.00,,,0.00,,2013-02-19 17:11:00,
2013-02-19 12:21:00,42.0,26.0,30.29,SSW,207,1.0,3.0,53,0.01,,,0.01,,2013-02-19 17:21:00,
2013-02-19 12:32:00,43.0,26.0,30.29,SSE,156,2.0,6.0,51,0.01,,,0.01,,2013-02-19 17:32:00,
2013-02-19 12:42:00,43.0,26.0,30.29,SSE,156,2.0,6.0,51,0.01,,,0.01,,2013-02-19 17:42:00,
2013-02-19 12:52:00,44.0,27.0,30.28,WNW,297,1.0,5.0,51,0.01,,,0.01,,2013-02-19 17:52:00,
2013-02-19 13:02:00,44.0,27.0,30.28,WNW,297,1.0,5.0,51,0.01,,,0.01,,2013-02-19 18:02:00,
2013-02-19 13:11:00,44.0,27.0,30.28,WNW,297,1.0,5.0,51,0.01,,,0.01,,2013-02-19 18:11:00,
2013-02-19 13:21:00,44.0,27.0,30.26,ENE,60,1.0,3.0,51,0.01,,,0.02,,2013-02-19 18:21:00,
2013-02-19 13:32:00,45.0,27.0,30.24,ENE,70,1.0,3.0,50,0.02,,,0.03,,2013-02-19 18:32:00,
2013-02-19 13:42:00,45.0,27.0,30.24,ENE,70,1.0,3.0,50,0.02,,,0.03,,2013-02-19 18:42:00,
2013-02-19 13:52:00,45.0,27.0,30.24,ENE,70,1.0,3.0,50,0.02,,,0.03,,2013-02-19 18:52:00,
2013-02-19 14:01:00,45.0,29.0,30.23,NW,305,0.0,3.0,53,0.01,,,0.03,,2013-02-19 19:01:00,
2013-02-19 14:11:00,45.0,29.0,30.23,NW,305,0.0,3.0,53,0.01,,,0.03,,2013-02-19 19:11:00,
2013-02-19 14:21:00,45.0,29.0,30.22,East,98,0.0,3.0,53,0.01,,,0.03,,2013-02-19 19:21:00,
2013-02-19 14:32:00,45.0,29.0,30.22,East,98,0.0,3.0,53,0.01,,,0.03,,2013-02-19 19:32:00,
2013-02-19 14:42:00,45.0,29.0,30.22,East,98,0.0,3.0,53,0.01,,,0.03,,2013-02-19 19:42:00,
2013-02-19 14:52:00,44.0,30.0,30.20,North,352,1.0,2.0,58,0.00,,,0.03,,2013-02-19 19:52:00,
2013-02-19 15:02:00,44.0,31.0,30.19,SE,128,0.0,3.0,59,0.00,,,0.03,,2013-02-19 20:02:00,
2013-02-19 15:12:00,44.0,31.0,30.19,SE,128,0.0,3.0,59,0.00,,,0.03,,2013-02-19 20:12:00,
2013-02-19 15:22:00,43.0,31.0,30.17,East,100,1.0,3.0,62,0.00,,,0.03,,2013-02-19 20:22:00,
2013-02-19 15:32:00,43.0,31.0,30.17,East,88,0.0,3.0,63,0.00,,,0.03,,2013-02-19 20:32:00,
2013-02-19 15:42:00,43.0,31.0,30.17,East,88,0.0,3.0,63,0.00,,,0.03,,2013-02-19 20:42:00,
2013-02-19 15:52:00,43.0,32.0,30.16,East,96,0.0,2.0,64,0.00,,,0.03,,2013-02-19 20:52:00,
2013-02-19 16:02:00,43.0,32.0,30.16,East,96,0.0,2.0,64,0.00,,,0.03,,2013-02-19 21:02:00,
2013-02-19 16:11:00,43.0,32.0,30.16,East,96,0.0,2.0,64,0.00,,,0.03,,2013-02-19 21:11:00,
2013-02-19 16:21:00,41.0,32.0,30.13,ESE,102,1.0,3.0,69,0.00,,,0.03,,2013-02-19 21:21:00,
2013-02-19 16:32:00,41.0,32.0,30.12,East,101,0.0,1.0,69,0.00,,,0.03,,2013-02-19 21:32:00,
2013-02-19 16:42:00,41.0,32.0,30.12,East,101,0.0,1.0,69,0.00,,,0.03,,2013-02-19 21:42:00,
2013-02-19 16:52:00,42.0,33.0,30.11,SE,126,1.0,2.0,69,0.00,,,0.03,,2013-02-19 21:52:00,
2013-02-19 17:02:00,43.0,34.0,30.10,ESE,108,1.0,3.0,70,0.00,,,0.03,,2013-02-19 22:02:00,
2013-02-19 17:11:00,43.0,34.0,30.10,ESE,108,1.0,3.0,70,0.00,,,0.03,,2013-02-19 22:11:00,
2013-02-19 17:21:00,42.0,33.0,30.10,East,98,2.0,6.0,71,0.00,,,0.03,,2013-02-19 22:21:00,
2013-02-19 17:32:00,43.0,35.0,30.10,ESE,114,1.0,3.0,73,0.00,,,0.03,,2013-02-19 22:32:00,
2013-02-19 17:42:00,43.0,35.0,30.10,ESE,114,1.0,3.0,73,0.00,,,0.03,,2013-02-19 22:42:00,
2013-02-19 17:52:00,42.0,35.0,30.09,WSW,238,1.0,3.0,77,0.00,,,0.03,,2013-02-19 22:52:00,
2013-02-19 18:01:00,42.0,36.0,30.08,SW,218,0.0,3.0,80,0.00,,,0.03,,2013-02-19 23:01:00,
2013-02-19 18:11:00,42.0,36.0,30.08,SW,218,0.0,3.0,80,0.00,,,0.03,,2013-02-19 23:11:00,
2013-02-19 18:21:00,42.0,37.0,30.07,East,79,1.0,2.0,83,0.00,,,0.03,,2013-02-19 23:21:00,
2013-02-19 18:32:00,42.0,37.0,30.07,East,79,1.0,2.0,83,0.00,,,0.03,,2013-02-19 23:32:00,
2013-02-19 18:42:00,42.0,37.0,30.07,East,79,1.0,2.0,83,0.00,,,0.03,,2013-02-19 23:42:00,
2013-02-19 18:52:00,40.0,37.0,30.05,East,96,1.0,2.0,88,0.01,,,0.04,,2013-02-19 23:52:00,
2013-02-19 19:01:00,40.0,37.0,30.04,East,82,1.0,3.0,90,0.02,,,0.05,,2013-02-20 00:01:00,
2013-02-19 19:11:00,40.0,37.0,30.04,East,82,1.0,3.0,90,0.02,,,0.05,,2013-02-20 00:11:00,
2013-02-19 19:21:00,39.0,37.0,30.03,East,96,0.0,3.0,93,0.03,,,0.06,,2013-02-20 00:21:00,
2013-02-19 19:32:00,39.0,37.0,30.03,East,96,0.0,3.0,93,0.03,,,0.06,,2013-02-20 00:32:00,
2013-02-19 19:42:00,39.0,37.0,30.03,East,96,0.0,3.0,93,0.03,,,0.06,,2013-02-20 00:42:00,
2013-02-19 19:52:00,39.0,38.0,30.00,East,89,1.0,5.0,95,0.05,,,0.09,,2013-02-20 00:52:00,
2013-02-19 20:02:00,39.0,38.0,29.99,West,260,1.0,3.0,95,0.06,,,0.11,,2013-02-20 01:02:00,
2013-02-19 20:11:00,39.0,38.0,29.99,West,260,1.0,3.0,95,0.06,,,0.11,,2013-02-20 01:11:00,
2013-02-19 20:21:00,39.0,38.0,29.99,West,260,1.0,3.0,95,0.06,,,0.11,,2013-02-20 01:21:00,
2013-02-19 20:32:00,40.0,39.0,29.97,ESE,110,1.0,3.0,96,0.09,,,0.16,,2013-02-20 01:32:00,
2013-02-19 20:42:00,40.0,39.0,29.97,ESE,110,1.0,3.0,96,0.09,,,0.16,,2013-02-20 01:42:00,
2013-02-19 20:52:00,40.0,39.0,29.94,South,190,0.0,3.0,97,0.10,,,0.19,,2013-02-20 01:52:00,
2013-02-19 21:02:00,40.0,39.0,29.93,WSW,256,1.0,3.0,96,0.09,,,0.20,,2013-02-20 02:02:00,
2013-02-19 21:11:00,40.0,39.0,29.93,WSW,256,1.0,3.0,96,0.09,,,0.20,,2013-02-20 02:11:00,
2013-02-19 21:21:00,41.0,40.0,29.93,East,86,1.0,2.0,97,0.07,,,0.20,,2013-02-20 02:21:00,
2013-02-19 21:32:00,41.0,40.0,29.91,West,273,1.0,3.0,97,0.04,,,0.20,,2013-02-20 02:32:00,
2013-02-19 21:42:00,41.0,40.0,29.91,West,273,1.0,3.0,97,0.04,,,0.20,,2013-02-20 02:42:00,
2013-02-19 21:52:00,41.0,40.0,29.88,ENE,66,2.0,3.0,97,0.02,,,0.21,,2013-02-20 02:52:00,
2013-02-19 22:02:00,40.0,39.0,29.90,WSW,252,1.0,2.0,97,0.02,,,0.22,,2013-02-20 03:02:00,
2013-02-19 22:12:00,40.0,39.0,29.90,WSW,252,1.0,2.0,97,0.02,,,0.22,,2013-02-20 03:12:00,
2013-02-19 22:22:00,40.0,39.0,29.89,WNW,287,0.0,3.0,97,0.05,,,0.25,,2013-02-20 03:22:00,
2013-02-19 22:32:00,40.0,39.0,29.89,WNW,287,0.0,0.0,97,0.06,,,0.26,,2013-02-20 03:32:00,
2013-02-19 22:42:00,40.0,39.0,29.89,WNW,287,0.0,0.0,97,0.06,,,0.26,,2013-02-20 03:42:00,
2013-02-19 22:52:00,40.0,39.0,29.89,WNW,287,0.0,0.0,97,0.07,,,0.28,,2013-02-20 03:52:00,
2013-02-19 23:01:00,39.0,38.0,29.88,WNW,286,0.0,0.0,97,0.07,,,0.29,,2013-02-20 04:01:00,
2013-02-19 23:11:00,39.0,38.0,29.88,WNW,286,0.0,0.0,97,0.07,,,0.29,,2013-02-20 04:11:00,
2013-02-19 23:21:00,39.0,38.0,29.85,WNW,286,0.0,0.0,97,0.05,,,0.30,,2013-02-20 04:21:00,
2013-02-19 23:32:00,39.0,38.0,29.84,WNW,286,0.0,0.0,97,0.04,,,0.30,,2013-02-20 04:32:00,
2013-02-19 23:42:00,39.0,38.0,29.84,WNW,286,0.0,0.0,97,0.04,,,0.30,,2013-02-20 04:42:00,
2013-02-19 23:52:00,38.0,37.0,29.84,WNW,286,0.0,0.0,97,0.03,,,0.31,,2013-02-20 04:52:00,